Time;durP1;ratioP1;P1;durP2;ratioP2;P2;SDS_P1;SDS_P2;PMS_P1;PMS_P2;Temp;Humidity;BMP_temperature;BMP_pressure;BME280_temperature;BME280_humidity;BME280_pressure;Samples;Min_cycle;Max_cycle;Signal;HPM_P1;HPM_P2
2022/06/06 00:00:00;;;;;;;4.33;3.00;;;14.90;99.90;;;;;;5030791;28;20284;-96
2022/06/06 00:02:28;;;;;;;6.67;3.13;;;14.90;99.90;;;;;;5029684;28;20745;-93
2022/06/06 00:04:54;;;;;;;8.87;2.63;;;14.90;99.90;;;;;;5030391;28;20187;-93
2022/06/06 00:07:20;;;;;;;3.13;1.97;;;14.90;99.90;;;;;;5029637;28;20771;-92
2022/06/06 00:09:46;;;;;;;4.20;2.10;;;14.80;99.90;;;;;;4996815;28;20226;-94
2022/06/06 00:12:12;;;;;;;5.63;2.70;;;14.80;99.90;;;;;;5029308;28;20226;-94
2022/06/06 00:14:38;;;;;;;2.43;2.23;;;14.80;99.90;;;;;;5029079;28;20577;-93
2022/06/06 00:17:05;;;;;;;4.13;2.70;;;14.90;99.90;;;;;;5030253;28;20182;-95
2022/06/06 00:19:30;;;;;;;5.30;2.43;;;14.90;99.90;;;;;;5029602;28;20597;-95
2022/06/06 00:21:56;;;;;;;8.77;2.77;;;14.90;99.90;;;;;;4996471;28;20221;-93
2022/06/06 00:24:22;;;;;;;8.70;2.57;;;14.90;99.90;;;;;;5029384;28;20671;-94
2022/06/06 00:26:48;;;;;;;5.50;2.53;;;14.90;99.90;;;;;;5029179;28;20312;-91
2022/06/06 00:29:17;;;;;;;10.27;3.13;;;14.90;99.90;;;;;;5029197;28;20224;-96
2022/06/06 00:37:14;;;;;;;3.63;2.07;;;14.70;99.90;;;;;;5029023;28;20223;-93
2022/06/06 00:39:42;;;;;;;4.37;1.63;;;14.70;99.90;;;;;;5028916;28;20297;-96
2022/06/06 00:42:19;;;;;;;2.37;1.90;;;14.60;99.90;;;;;;5029914;28;20701;-93
2022/06/06 00:44:45;;;;;;;5.37;3.20;;;14.60;99.90;;;;;;5028697;28;20257;-94
2022/06/06 00:47:24;;;;;;;10.40;2.87;;;14.60;99.90;;;;;;5012398;28;20182;-95
2022/06/06 00:50:02;;;;;;;9.47;1.37;;;14.60;99.90;;;;;;5030544;28;20166;-94
2022/06/06 00:52:32;;;;;;;6.57;1.83;;;14.60;99.90;;;;;;5029761;28;20228;-95
2022/06/06 00:55:09;;;;;;;2.70;2.03;;;14.50;99.90;;;;;;5029600;28;20245;-93
2022/06/06 00:57:40;;;;;;;1.83;1.67;;;14.50;99.90;;;;;;5028603;28;20221;-95
2022/06/06 01:00:10;;;;;;;6.83;2.43;;;14.40;99.90;;;;;;5029991;28;20346;-94
2022/06/06 01:02:36;;;;;;;7.00;3.67;;;14.40;99.90;;;;;;5028108;28;20241;-90
2022/06/06 01:05:02;;;;;;;4.57;2.83;;;14.40;99.90;;;;;;5028108;28;20175;-93
2022/06/06 01:07:28;;;;;;;1.37;0.87;;;14.40;99.90;;;;;;5012893;28;20202;-94
2022/06/06 01:09:54;;;;;;;4.97;2.17;;;14.40;99.90;;;;;;5028693;28;20253;-94
2022/06/06 01:12:22;;;;;;;9.40;3.17;;;14.50;99.90;;;;;;5011818;28;20279;-94
2022/06/06 01:14:52;;;;;;;8.77;3.37;;;14.50;99.90;;;;;;5029287;28;20215;-91
2022/06/06 01:17:44;;;;;;;1.83;1.67;;;14.50;99.90;;;;;;5029435;28;20261;-91
2022/06/06 01:20:19;;;;;;;3.47;2.10;;;14.50;99.90;;;;;;5028327;28;20185;-96
2022/06/06 01:23:14;;;;;;;4.37;2.60;;;14.50;99.90;;;;;;5028750;28;20170;-92
2022/06/06 01:26:03;;;;;;;3.07;1.93;;;14.60;99.90;;;;;;5029384;28;20221;-94
2022/06/06 01:28:52;;;;;;;4.00;1.80;;;14.50;99.90;;;;;;5028235;28;20244;-93
2022/06/06 01:31:34;;;;;;;1.33;1.23;;;14.60;99.90;;;;;;4989684;28;20218;-94
2022/06/06 01:34:03;;;;;;;6.37;2.03;;;14.60;99.90;;;;;;5028354;28;20576;-96
2022/06/06 01:36:31;;;;;;;4.53;2.57;;;14.60;99.90;;;;;;5027835;28;20230;-92
2022/06/06 01:38:59;;;;;;;11.07;2.87;;;14.60;99.90;;;;;;5027228;28;20226;-94
2022/06/06 01:41:50;;;;;;;6.40;3.23;;;14.60;99.90;;;;;;5027884;28;20223;-92
2022/06/06 01:44:47;;;;;;;12.83;4.33;;;14.50;99.90;;;;;;5028334;28;20215;-93
2022/06/06 01:47:20;;;;;;;1.37;1.27;;;14.60;99.90;;;;;;5029241;28;20167;-92
2022/06/06 01:49:47;;;;;;;1.97;1.83;;;14.60;99.90;;;;;;5028694;28;20175;-94
2022/06/06 01:52:15;;;;;;;3.57;1.40;;;14.50;99.90;;;;;;5014052;28;20302;-93
2022/06/06 01:54:42;;;;;;;2.07;1.80;;;14.50;99.90;;;;;;5032789;28;20225;-92
2022/06/06 01:57:11;;;;;;;6.30;1.77;;;14.50;99.90;;;;;;5033076;28;20242;-94
2022/06/06 01:59:37;;;;;;;3.17;1.87;;;14.50;99.90;;;;;;5032867;28;20219;-94
2022/06/06 02:02:04;;;;;;;3.37;2.30;;;14.50;99.90;;;;;;5031418;28;20186;-94
2022/06/06 02:04:30;;;;;;;2.97;1.53;;;14.50;99.90;;;;;;5015671;28;20655;-92
2022/06/06 02:06:56;;;;;;;7.90;1.13;;;14.50;99.90;;;;;;5031723;28;20221;-91
2022/06/06 02:09:22;;;;;;;1.57;1.03;;;14.50;99.90;;;;;;5014819;28;20222;-92
2022/06/06 02:11:48;;;;;;;4.10;1.93;;;14.40;99.90;;;;;;5032424;28;20214;-92
2022/06/06 02:14:14;;;;;;;2.00;1.60;;;14.50;99.90;;;;;;4998514;28;20261;-95
2022/06/06 02:16:40;;;;;;;5.50;2.67;;;14.50;99.90;;;;;;5016064;28;20206;-93
2022/06/06 02:19:06;;;;;;;3.40;2.70;;;14.50;99.90;;;;;;5014918;28;20256;-93
2022/06/06 02:21:33;;;;;;;4.07;2.97;;;14.50;99.90;;;;;;5031214;28;20576;-91
2022/06/06 02:24:00;;;;;;;4.03;2.73;;;14.50;99.90;;;;;;5031250;28;20217;-93
2022/06/06 02:26:26;;;;;;;3.77;2.83;;;14.50;99.90;;;;;;5014744;28;20296;-93
2022/06/06 02:28:52;;;;;;;4.00;3.50;;;14.50;99.90;;;;;;4999122;28;20281;-93
2022/06/06 02:31:18;;;;;;;3.07;2.67;;;14.50;99.90;;;;;;5014732;28;20218;-92
2022/06/06 02:33:44;;;;;;;4.13;2.67;;;14.50;99.90;;;;;;5014490;28;20230;-93
2022/06/06 02:36:11;;;;;;;6.93;2.40;;;14.50;99.90;;;;;;5030967;28;20289;-92
2022/06/06 02:38:37;;;;;;;2.77;2.07;;;14.50;99.90;;;;;;5014525;28;20222;-93
2022/06/06 02:41:09;;;;;;;4.03;3.03;;;14.60;99.90;;;;;;5030872;28;20234;-92
2022/06/06 02:43:37;;;;;;;8.97;2.63;;;14.50;99.90;;;;;;5031494;28;20185;-93
2022/06/06 02:46:04;;;;;;;4.97;2.77;;;14.50;99.90;;;;;;5032105;28;20585;-90
2022/06/06 02:48:31;;;;;;;6.70;2.77;;;14.60;99.90;;;;;;5030832;28;20226;-90
2022/06/06 02:50:57;;;;;;;3.87;2.83;;;14.50;99.90;;;;;;5030822;28;20310;-92
2022/06/06 02:53:23;;;;;;;6.70;3.13;;;14.50;99.90;;;;;;4998396;28;20214;-92
2022/06/06 02:55:53;;;;;;;9.70;3.07;;;14.60;99.90;;;;;;5014990;28;20529;-94
2022/06/06 02:58:24;;;;;;;9.53;2.83;;;14.50;99.90;;;;;;5031879;28;20225;-92
2022/06/06 03:01:14;;;;;;;3.83;2.63;;;14.50;99.90;;;;;;5030531;28;20791;-93
2022/06/06 03:03:40;;;;;;;7.70;2.70;;;14.50;99.90;;;;;;5030498;28;20219;-92
2022/06/06 03:06:07;;;;;;;4.77;2.73;;;14.60;99.90;;;;;;5030242;28;20236;-92
2022/06/06 03:08:34;;;;;;;7.60;3.17;;;14.60;99.90;;;;;;5031108;28;20218;-91
2022/06/06 03:11:23;;;;;;;3.80;2.57;;;14.60;99.90;;;;;;5030575;28;20625;-93
2022/06/06 03:14:04;;;;;;;6.63;2.70;;;14.60;99.90;;;;;;5020405;28;20261;-93
2022/06/06 03:23:00;;;;;;;4.10;1.97;;;14.60;99.90;;;;;;5031088;28;20606;-95
2022/06/06 03:25:38;;;;;;;9.53;3.13;;;14.60;99.90;;;;;;5031482;28;20286;-92
2022/06/06 03:28:06;;;;;;;6.57;3.70;;;14.60;99.90;;;;;;5029663;28;20287;-91
2022/06/06 03:30:53;;;;;;;4.50;3.63;;;14.60;99.90;;;;;;5029563;28;20382;-92
2022/06/06 03:33:52;;;;;;;7.50;4.03;;;14.60;99.90;;;;;;5029953;28;20215;-91
2022/06/06 03:36:35;;;;;;;2.80;1.93;;;14.70;99.90;;;;;;5029784;28;20809;-91
2022/06/06 03:39:14;;;;;;;4.53;3.60;;;14.70;99.90;;;;;;5029279;28;20222;-92
2022/06/06 03:41:50;;;;;;;3.87;2.73;;;14.70;99.90;;;;;;5030507;28;20223;-92
2022/06/06 03:44:28;;;;;;;8.07;2.47;;;14.70;99.90;;;;;;5029293;28;20240;-92
2022/06/06 03:46:59;;;;;;;3.13;2.40;;;14.70;99.90;;;;;;5029674;28;20179;-92
2022/06/06 03:49:50;;;;;;;8.87;2.63;;;14.70;99.90;;;;;;5029989;28;20179;-92
2022/06/06 03:52:33;;;;;;;4.90;3.90;;;14.70;99.90;;;;;;5029453;28;20241;-92
2022/06/06 03:55:27;;;;;;;3.27;2.13;;;14.70;99.90;;;;;;5029663;28;20755;-91
2022/06/06 03:57:56;;;;;;;4.73;3.37;;;14.80;99.90;;;;;;5029153;28;20801;-91
2022/06/06 04:00:23;;;;;;;6.53;3.40;;;14.80;99.90;;;;;;5029312;28;20241;-92
2022/06/06 04:02:49;;;;;;;9.47;3.60;;;14.90;99.90;;;;;;5029321;28;20221;-93
2022/06/06 04:05:18;;;;;;;5.37;3.43;;;14.80;99.90;;;;;;4996782;28;20298;-92
2022/06/06 04:07:45;;;;;;;5.97;3.37;;;14.90;99.90;;;;;;5029859;28;20183;-93
2022/06/06 04:10:13;;;;;;;4.97;3.60;;;14.80;99.90;;;;;;5012645;28;20676;-92
2022/06/06 04:13:07;;;;;;;5.37;3.00;;;14.90;99.90;;;;;;5030083;28;20210;-93
2022/06/06 04:15:45;;;;;;;4.53;3.33;;;14.90;99.90;;;;;;5011215;28;20287;-92
2022/06/06 04:18:43;;;;;;;9.57;3.63;;;14.90;99.90;;;;;;5030450;28;20222;-90
2022/06/06 04:21:40;;;;;;;4.30;2.43;;;14.90;99.90;;;;;;5029069;28;20304;-91
2022/06/06 04:24:32;;;;;;;5.07;3.23;;;14.90;99.90;;;;;;5019154;28;20352;-91
2022/06/06 04:27:35;;;;;;;6.60;3.30;;;14.90;99.90;;;;;;5024459;28;20237;-92
2022/06/06 04:30:15;;;;;;;6.87;2.77;;;14.90;99.90;;;;;;5028885;28;20222;-91
2022/06/06 04:32:56;;;;;;;8.90;4.03;;;14.80;99.90;;;;;;5029004;28;20238;-90
2022/06/06 04:35:49;;;;;;;4.37;2.53;;;14.90;99.90;;;;;;5029906;28;20221;-90
2022/06/06 04:38:24;;;;;;;6.20;3.90;;;14.90;99.90;;;;;;5028482;28;20314;-91
2022/06/06 04:40:53;;;;;;;7.83;2.83;;;14.90;99.90;;;;;;5028967;28;20225;-93
2022/06/06 04:43:41;;;;;;;9.97;3.77;;;14.90;99.90;;;;;;5028760;28;20207;-94
2022/06/06 04:46:15;;;;;;;5.33;3.77;;;14.90;99.90;;;;;;5028498;28;20264;-94
2022/06/06 04:48:43;;;;;;;4.93;2.87;;;14.90;99.90;;;;;;5028578;28;20228;-93
2022/06/06 04:51:11;;;;;;;7.00;3.13;;;14.80;99.90;;;;;;5011719;28;20231;-92
2022/06/06 04:53:41;;;;;;;8.90;3.73;;;14.90;99.90;;;;;;5028084;28;20218;-92
2022/06/06 04:56:08;;;;;;;7.63;2.77;;;14.90;99.90;;;;;;5027650;28;20175;-92
2022/06/06 04:58:36;;;;;;;6.43;3.43;;;14.90;99.90;;;;;;5012696;28;20218;-93
2022/06/06 05:01:03;;;;;;;4.17;2.37;;;14.90;99.90;;;;;;5029462;28;20319;-91
2022/06/06 05:03:29;;;;;;;7.97;4.57;;;14.90;99.90;;;;;;5011651;28;20758;-92
2022/06/06 05:06:13;;;;;;;6.67;3.50;;;14.90;99.90;;;;;;5011606;28;20303;-91
2022/06/06 05:09:12;;;;;;;4.10;3.10;;;14.90;99.90;;;;;;5028067;28;20218;-90
2022/06/06 05:12:01;;;;;;;5.53;3.53;;;15.00;99.90;;;;;;5028151;28;20206;-92
2022/06/06 05:14:54;;;;;;;6.90;3.03;;;15.10;99.90;;;;;;5028491;28;20214;-92
2022/06/06 05:17:59;;;;;;;6.47;3.57;;;15.20;99.90;;;;;;5028162;28;20626;-92
2022/06/06 05:20:33;;;;;;;9.33;3.37;;;15.20;99.90;;;;;;5027841;28;20594;-91
2022/06/06 05:23:23;;;;;;;5.83;3.77;;;15.20;99.90;;;;;;5028503;28;20201;-90
2022/06/06 05:26:00;;;;;;;4.40;3.20;;;15.20;99.90;;;;;;5030705;28;20671;-92
2022/06/06 05:28:31;;;;;;;7.50;3.23;;;15.20;99.90;;;;;;5032802;28;20202;-92
2022/06/06 05:31:15;;;;;;;17.60;4.70;;;15.20;99.90;;;;;;5032923;28;20242;-92
2022/06/06 05:34:10;;;;;;;4.77;3.00;;;15.20;99.90;;;;;;5032849;28;20305;-94
2022/06/06 05:36:42;;;;;;;5.80;3.40;;;15.20;99.90;;;;;;5030808;28;20663;-93
2022/06/06 05:39:45;;;;;;;3.13;2.27;;;15.30;99.90;;;;;;5028023;28;20301;-93
2022/06/06 05:42:29;;;;;;;2.40;1.40;;;15.20;99.90;;;;;;5027848;28;20268;-94
2022/06/06 05:45:02;;;;;;;2.60;1.97;;;15.20;99.90;;;;;;5027845;28;20630;-92
2022/06/06 05:47:48;;;;;;;1.90;1.67;;;15.10;99.90;;;;;;5029112;28;20590;-93
2022/06/06 05:50:17;;;;;;;3.13;0.83;;;15.10;99.90;;;;;;5028170;28;20214;-95
2022/06/06 05:53:10;;;;;;;1.77;1.17;;;15.00;99.90;;;;;;5028644;28;20274;-91
2022/06/06 05:56:09;;;;;;;1.73;0.97;;;14.90;99.90;;;;;;5028850;28;20253;-92
2022/06/06 05:59:02;;;;;;;0.70;0.70;;;14.90;99.90;;;;;;5028987;28;20321;-91
2022/06/06 06:01:49;;;;;;;4.23;0.70;;;14.90;99.90;;;;;;5028721;28;20194;-92
2022/06/06 06:04:36;;;;;;;1.23;0.57;;;14.80;99.90;;;;;;5028160;28;20437;-91
2022/06/06 06:07:38;;;;;;;6.20;0.50;;;14.80;99.90;;;;;;5028983;28;20225;-94
2022/06/06 06:10:20;;;;;;;0.20;0.20;;;14.70;99.90;;;;;;5028270;28;20218;-94
2022/06/06 06:13:10;;;;;;;1.50;0.70;;;14.80;99.90;;;;;;5027946;28;20215;-96
2022/06/06 06:15:39;;;;;;;2.23;2.13;;;14.80;99.90;;;;;;5027697;28;20578;-95
2022/06/06 06:18:24;;;;;;;0.57;0.43;;;14.60;99.90;;;;;;5028881;28;20242;-93
2022/06/06 06:21:16;;;;;;;0.47;0.47;;;14.60;99.90;;;;;;5028530;28;20215;-95
2022/06/06 06:23:54;;;;;;;0.87;0.87;;;14.60;99.90;;;;;;5028307;28;20214;-92
2022/06/06 06:26:21;;;;;;;0.83;0.60;;;14.60;99.90;;;;;;5027864;28;20214;-95
2022/06/06 06:28:49;;;;;;;1.10;0.80;;;14.70;99.90;;;;;;5012203;28;20373;-93
2022/06/06 06:31:41;;;;;;;1.53;0.63;;;14.80;99.90;;;;;;5028531;28;20210;-94
2022/06/06 06:34:44;;;;;;;0.60;0.57;;;14.80;99.90;;;;;;5028998;28;20214;-93
2022/06/06 06:37:19;;;;;;;1.93;1.20;;;14.90;99.90;;;;;;5027835;28;20225;-91
2022/06/06 06:39:45;;;;;;;0.37;0.37;;;14.90;99.90;;;;;;5031293;28;20327;-94
2022/06/06 06:42:13;;;;;;;2.30;1.20;;;14.80;99.90;;;;;;5031461;28;20283;-91
2022/06/06 06:44:50;;;;;;;0.70;0.70;;;14.80;99.90;;;;;;5032649;28;20261;-89
2022/06/06 06:47:23;;;;;;;2.53;1.40;;;14.80;99.90;;;;;;5031251;28;20210;-94
2022/06/06 06:50:01;;;;;;;1.27;0.70;;;14.80;99.90;;;;;;5033282;28;20179;-93
2022/06/06 06:52:30;;;;;;;2.00;1.50;;;14.80;99.90;;;;;;5032281;28;20206;-93
2022/06/06 06:55:08;;;;;;;5.30;1.30;;;14.70;99.90;;;;;;5031985;28;20215;-96
2022/06/06 06:57:53;;;;;;;2.33;1.10;;;14.80;99.90;;;;;;5032032;28;20222;-90
2022/06/06 07:00:22;;;;;;;12.10;1.43;;;14.90;99.90;;;;;;5030834;28;20222;-94
2022/06/06 07:09:06;;;;;;;2.17;1.67;;;14.70;99.90;;;;;;5031629;28;20726;-94
2022/06/06 07:11:38;;;;;;;2.93;1.00;;;14.80;99.90;;;;;;5031603;28;20330;-94
2022/06/06 07:14:12;;;;;;;2.03;1.37;;;14.80;99.90;;;;;;5029997;28;20270;-93
2022/06/06 07:16:40;;;;;;;1.17;0.87;;;14.90;99.90;;;;;;5030875;28;20170;-92
2022/06/06 07:19:19;;;;;;;4.50;1.57;;;15.00;99.90;;;;;;5029355;28;20234;-93
2022/06/06 07:21:47;;;;;;;3.50;1.43;;;14.90;99.90;;;;;;5030047;28;20253;-91
2022/06/06 07:24:19;;;;;;;2.00;1.47;;;15.00;99.90;;;;;;5029820;28;20225;-91
2022/06/06 07:26:46;;;;;;;7.40;1.50;;;15.00;99.90;;;;;;5029920;28;20219;-89
2022/06/06 07:29:17;;;;;;;1.40;1.27;;;15.00;99.90;;;;;;5031178;28;20248;-91
2022/06/06 07:31:55;;;;;;;3.33;1.00;;;15.00;99.90;;;;;;5030801;28;20228;-91
2022/06/06 07:34:49;;;;;;;2.50;1.10;;;15.00;99.90;;;;;;5030577;28;20190;-92
2022/06/06 07:37:52;;;;;;;2.53;1.73;;;15.00;99.90;;;;;;5029969;28;20230;-93
2022/06/06 07:40:37;;;;;;;4.23;1.97;;;14.90;99.90;;;;;;5030215;28;20242;-91
2022/06/06 07:43:09;;;;;;;1.20;0.87;;;14.90;99.90;;;;;;5029787;28;20287;-93
2022/06/06 07:45:45;;;;;;;13.70;2.33;;;14.80;99.90;;;;;;5030581;28;20245;-91
2022/06/06 07:48:33;;;;;;;1.67;0.80;;;14.90;99.90;;;;;;5029380;28;20214;-93
2022/06/06 07:51:11;;;;;;;1.87;1.17;;;15.00;99.90;;;;;;5029673;28;20206;-95
2022/06/06 07:53:55;;;;;;;1.07;0.97;;;15.20;99.90;;;;;;5029401;28;20210;-93
2022/06/06 07:56:42;;;;;;;0.70;0.70;;;15.10;99.90;;;;;;5029722;28;20210;-95
2022/06/06 07:59:38;;;;;;;3.03;0.90;;;15.10;99.90;;;;;;5030107;28;20214;-91
2022/06/06 08:02:22;;;;;;;1.33;1.07;;;15.00;99.90;;;;;;5030162;28;20186;-90
2022/06/06 08:04:54;;;;;;;3.07;1.30;;;15.20;99.90;;;;;;5029520;28;20175;-89
2022/06/06 08:07:44;;;;;;;1.77;0.93;;;15.20;99.90;;;;;;5030411;28;20207;-89
2022/06/06 08:10:20;;;;;;;1.80;1.10;;;15.10;99.90;;;;;;5030080;28;20306;-90
2022/06/06 08:12:56;;;;;;;1.30;1.20;;;15.20;99.90;;;;;;5028875;28;20210;-91
2022/06/06 08:15:36;;;;;;;2.07;1.03;;;15.10;99.90;;;;;;5030011;28;20267;-91
2022/06/06 08:18:22;;;;;;;2.27;1.00;;;15.10;99.90;;;;;;5028556;28;20222;-92
2022/06/06 08:21:06;;;;;;;5.83;1.50;;;15.00;99.90;;;;;;5029892;28;20305;-91
2022/06/06 08:23:34;;;;;;;5.77;1.73;;;15.10;99.90;;;;;;5029161;28;20748;-94
2022/06/06 08:26:02;;;;;;;0.87;0.80;;;15.00;99.90;;;;;;5028732;28;20241;-92
2022/06/06 08:28:31;;;;;;;2.03;0.87;;;15.10;99.90;;;;;;5012897;28;20178;-89
2022/06/06 08:30:57;;;;;;;2.80;0.90;;;15.20;99.90;;;;;;5028452;28;20686;-89
2022/06/06 08:33:24;;;;;;;0.63;0.63;;;15.30;99.90;;;;;;5029947;28;20683;-90
2022/06/06 08:35:53;;;;;;;1.83;1.53;;;15.40;99.90;;;;;;5028216;28;20214;-89
2022/06/06 08:38:35;;;;;;;1.43;1.10;;;15.80;99.90;;;;;;5029281;28;20234;-89
2022/06/06 08:41:49;;;;;;;2.00;0.80;;;16.00;99.90;;;;;;5028747;28;20256;-92
2022/06/06 08:44:49;;;;;;;0.93;0.90;;;16.20;99.90;;;;;;5028913;28;20218;-92
2022/06/06 08:47:34;;;;;;;3.33;1.07;;;16.50;99.90;;;;;;5020696;28;20229;-91
2022/06/06 08:53:21;;;;;;;3.73;1.40;;;16.60;99.90;;;;;;5029299;28;20167;-90
2022/06/06 08:56:01;;;;;;;6.93;1.57;;;16.80;99.90;;;;;;5030196;28;20166;-93
2022/06/06 08:58:51;;;;;;;2.00;1.80;;;17.00;99.90;;;;;;5029707;28;20214;-90
2022/06/06 09:01:28;;;;;;;1.53;0.97;;;18.00;99.90;;;;;;5029403;28;20211;-90
2022/06/06 09:04:06;;;;;;;1.97;1.40;;;18.70;99.90;;;;;;5028624;28;20307;-90
2022/06/06 09:07:17;;;;;;;2.33;1.87;;;18.20;99.90;;;;;;5029539;28;20218;-90
2022/06/06 09:10:13;;;;;;;4.53;1.20;;;18.60;99.90;;;;;;5030494;28;20210;-90
2022/06/06 09:13:03;;;;;;;4.77;1.67;;;18.90;99.90;;;;;;5030182;28;20214;-91
2022/06/06 09:16:18;;;;;;;3.43;1.77;;;18.50;99.90;;;;;;5030245;28;20293;-93
2022/06/06 09:19:15;;;;;;;1.00;0.90;;;18.20;99.90;;;;;;4983900;28;20287;-92
2022/06/06 09:21:47;;;;;;;3.37;1.53;;;18.60;99.90;;;;;;5029546;28;20301;-91
2022/06/06 09:24:47;;;;;;;3.97;1.83;;;18.50;99.90;;;;;;5029654;28;20210;-90
2022/06/06 09:27:37;;;;;;;4.17;1.77;;;18.70;99.90;;;;;;5028199;28;20217;-90
2022/06/06 09:30:38;;;;;;;4.03;1.43;;;18.50;99.90;;;;;;5028406;28;20240;-89
2022/06/06 09:33:41;;;;;;;1.63;0.93;;;17.80;99.90;;;;;;5028664;28;20210;-90
2022/06/06 09:36:30;;;;;;;2.83;1.47;;;17.00;99.90;;;;;;5029349;28;20297;-92
2022/06/06 09:39:18;;;;;;;1.87;1.00;;;16.60;99.90;;;;;;5029069;28;20317;-91
2022/06/06 09:41:55;;;;;;;4.07;1.70;;;16.40;99.90;;;;;;5028040;28;20558;-89
2022/06/06 09:44:31;;;;;;;3.23;1.27;;;16.10;99.90;;;;;;5027856;28;20302;-90
2022/06/06 09:47:31;;;;;;;4.43;1.30;;;15.80;99.90;;;;;;5028172;28;20166;-91
2022/06/06 09:50:28;;;;;;;2.70;1.60;;;15.80;99.90;;;;;;5028180;28;20175;-93
2022/06/06 09:53:18;;;;;;;3.07;1.50;;;15.80;99.90;;;;;;5028015;28;20178;-94
2022/06/06 09:59:50;;;;;;;0.63;0.63;;;15.40;99.90;;;;;;5030058;28;20237;-94
2022/06/06 10:02:54;;;;;;;1.50;1.40;;;15.20;99.90;;;;;;5028875;28;20218;-94
2022/06/06 10:05:48;;;;;;;2.87;1.30;;;15.10;99.90;;;;;;4986657;28;20214;-95
2022/06/06 10:08:26;;;;;;;4.77;1.30;;;15.00;99.90;;;;;;5027565;28;20227;-96
2022/06/06 10:11:33;;;;;;;1.50;1.13;;;15.10;99.90;;;;;;5029690;28;20175;-95
2022/06/06 10:14:21;;;;;;;4.00;1.57;;;15.00;99.90;;;;;;4969180;28;20274;-95
2022/06/06 10:17:10;;;;;;;7.17;1.70;;;15.00;99.90;;;;;;5015744;28;20184;-95
2022/06/06 10:19:59;;;;;;;3.13;1.90;;;15.00;99.90;;;;;;5036292;28;20218;-96
2022/06/06 10:22:48;;;;;;;5.00;1.90;;;15.00;99.90;;;;;;5015575;28;20349;-95
2022/06/06 10:25:26;;;;;;;1.50;0.93;;;15.00;99.90;;;;;;5034303;28;20757;-95
2022/06/06 10:28:03;;;;;;;16.77;2.07;;;15.00;99.90;;;;;;5034530;28;20565;-96
2022/06/06 10:30:54;;;;;;;3.43;1.50;;;15.10;99.90;;;;;;5034633;28;20274;-94
2022/06/06 10:33:35;;;;;;;1.73;0.87;;;15.10;99.90;;;;;;5032157;28;20304;-95
2022/06/06 10:36:49;;;;;;;1.67;1.30;;;15.00;99.90;;;;;;5033264;28;20202;-95
2022/06/06 10:39:20;;;;;;;2.37;1.77;;;14.90;99.90;;;;;;4989337;28;20242;-96
2022/06/06 10:42:04;;;;;;;2.77;0.80;;;14.90;99.90;;;;;;5037453;28;20210;-95
2022/06/06 10:44:53;;;;;;;1.50;1.40;;;14.90;99.90;;;;;;5033166;28;20506;-95
2022/06/06 10:47:56;;;;;;;4.97;1.83;;;14.70;99.90;;;;;;5034151;28;20234;-95
2022/06/06 10:53:46;;;;;;;6.13;1.43;;;14.80;99.90;;;;;;5033375;28;20218;-96
2022/06/06 10:56:31;;;;;;;2.77;1.63;;;14.80;99.90;;;;;;5035268;28;20509;-95
2022/06/06 10:59:24;;;;;;;3.70;1.53;;;14.80;99.90;;;;;;5036127;28;20195;-95
2022/06/06 11:01:59;;;;;;;3.33;1.43;;;14.70;99.90;;;;;;5033097;28;20175;-95
2022/06/06 11:04:42;;;;;;;5.93;1.40;;;14.70;99.90;;;;;;5034214;28;20217;-96
2022/06/06 11:07:30;;;;;;;7.37;1.17;;;14.60;99.90;;;;;;5033442;28;20249;-96
2022/06/06 11:10:37;;;;;;;9.30;1.90;;;14.70;99.90;;;;;;5033495;28;20455;-91
2022/06/06 11:13:36;;;;;;;2.97;1.60;;;14.60;99.90;;;;;;5032487;28;20222;-96
2022/06/06 11:16:26;;;;;;;3.47;1.53;;;14.60;99.90;;;;;;5031370;28;20280;-94
2022/06/06 11:19:26;;;;;;;2.77;1.77;;;14.60;99.90;;;;;;5031581;28;20229;-93
2022/06/06 11:22:29;;;;;;;4.93;2.47;;;14.70;99.90;;;;;;5031266;28;20722;-94
2022/06/06 11:25:07;;;;;;;4.30;2.87;;;14.90;99.90;;;;;;5031553;28;20214;-94
2022/06/06 11:27:38;;;;;;;4.70;2.80;;;14.80;99.90;;;;;;5031350;28;20210;-94
2022/06/06 11:30:28;;;;;;;3.27;1.67;;;14.80;99.90;;;;;;5032702;28;20214;-95
2022/06/06 11:33:18;;;;;;;5.33;2.37;;;15.00;99.90;;;;;;5034339;28;20210;-95
2022/06/06 11:36:01;;;;;;;4.53;1.20;;;14.90;99.90;;;;;;5010499;28;20568;-95
2022/06/06 11:38:48;;;;;;;4.83;2.23;;;14.90;99.90;;;;;;5016734;28;20360;-93
2022/06/06 11:41:44;;;;;;;2.80;1.50;;;14.90;99.90;;;;;;5030891;28;20295;-93
2022/06/06 11:44:29;;;;;;;3.93;1.17;;;15.00;99.90;;;;;;5024308;28;20174;-93
2022/06/06 11:47:22;;;;;;;3.93;1.70;;;14.90;99.90;;;;;;5003355;28;20189;-94
2022/06/06 11:50:16;;;;;;;3.10;1.37;;;15.00;99.90;;;;;;5010056;28;20210;-90
2022/06/06 12:05:27;;;;;;;5.03;2.53;;;14.90;99.90;;;;;;6170170;22;2289939;-93
2022/06/06 12:08:13;;;;;;;2.87;2.10;;;15.00;99.90;;;;;;6188004;23;20181;-91
2022/06/06 12:10:52;;;;;;;4.70;1.80;;;15.00;99.90;;;;;;6188507;23;20265;-90
2022/06/06 12:13:41;;;;;;;2.33;1.83;;;14.90;99.90;;;;;;6186719;23;21022;-90
2022/06/06 12:16:31;;;;;;;3.57;1.87;;;15.10;99.90;;;;;;6186828;23;20283;-89
2022/06/06 12:19:12;;;;;;;2.50;1.70;;;15.10;99.90;;;;;;6186756;23;20204;-91
2022/06/06 12:21:40;;;;;;;4.67;1.70;;;15.20;99.90;;;;;;6177597;23;20201;-91
2022/06/06 12:24:37;;;;;;;2.60;2.40;;;15.20;99.90;;;;;;6188855;23;20201;-90
2022/06/06 12:27:24;;;;;;;2.40;1.60;;;15.20;99.90;;;;;;6217680;23;20199;-88
2022/06/06 12:30:21;;;;;;;4.00;1.97;;;15.20;99.90;;;;;;6219121;23;20205;-87
2022/06/06 12:33:02;;;;;;;2.37;1.70;;;15.20;99.90;;;;;;6217922;23;21034;-90
2022/06/06 12:35:48;;;;;;;2.23;1.50;;;15.10;99.90;;;;;;6217277;23;20197;-89
2022/06/06 12:38:23;;;;;;;4.70;1.87;;;15.20;99.90;;;;;;6192871;23;20201;-89
2022/06/06 12:41:07;;;;;;;9.37;2.47;;;15.30;99.90;;;;;;6219029;23;20157;-90
2022/06/06 12:43:41;;;;;;;5.77;2.03;;;15.60;99.90;;;;;;6186480;23;20765;-90
2022/06/06 12:46:34;;;;;;;1.33;1.17;;;15.50;99.90;;;;;;6188127;23;20198;-91
2022/06/06 12:49:28;;;;;;;0.90;0.90;;;15.40;99.90;;;;;;6186312;23;20210;-91
2022/06/06 12:52:10;;;;;;;4.77;0.97;;;15.60;99.90;;;;;;6186882;23;20202;-91
2022/06/06 12:57:50;;;;;;;2.10;1.03;;;15.40;99.90;;;;;;6187671;23;20506;-91
2022/06/06 13:01:37;;;;;;;0.80;0.70;;;15.60;99.90;;;;;;6188800;23;20197;-93
2022/06/06 13:03:48;;;;;;;2.50;0.70;;;15.80;99.90;;;;;;6189156;23;20273;-89
2022/06/06 13:06:16;;;;;;;0.50;0.40;;;15.80;99.90;;;;;;6136551;23;20210;-91
2022/06/06 13:09:02;;;;;;;0.40;0.40;;;15.90;99.90;;;;;;6180207;23;20233;-94
2022/06/06 13:11:48;;;;;;;0.83;0.43;;;15.80;99.90;;;;;;6181238;23;20270;-90
2022/06/06 13:14:39;;;;;;;0.50;0.50;;;15.70;99.90;;;;;;6182132;23;20275;-92
2022/06/06 13:17:29;;;;;;;0.70;0.60;;;15.50;99.90;;;;;;6181117;23;20210;-90
2022/06/06 13:20:16;;;;;;;2.23;0.73;;;15.60;99.90;;;;;;6181346;23;20691;-90
2022/06/06 13:23:07;;;;;;;0.50;0.50;;;15.50;99.90;;;;;;6181568;23;20476;-90
2022/06/06 13:25:51;;;;;;;0.50;0.47;;;15.60;99.90;;;;;;6182651;23;20171;-91
2022/06/06 13:28:49;;;;;;;0.60;0.43;;;15.60;99.90;;;;;;6182568;23;20214;-93
2022/06/06 13:31:40;;;;;;;0.37;0.37;;;15.30;99.90;;;;;;6180974;23;20191;-91
2022/06/06 13:34:40;;;;;;;0.83;0.60;;;15.40;99.90;;;;;;6180191;23;20227;-88
2022/06/06 13:37:15;;;;;;;3.13;0.90;;;15.30;99.90;;;;;;6170014;23;20202;-90
2022/06/06 13:39:54;;;;;;;1.87;0.60;;;15.60;99.90;;;;;;6203388;23;20249;-91
2022/06/06 13:42:40;;;;;;;2.63;1.00;;;15.60;99.90;;;;;;6192524;23;20233;-91
2022/06/06 13:45:15;;;;;;;0.80;0.60;;;15.70;99.90;;;;;;6180867;23;20647;-89
2022/06/06 13:48:11;;;;;;;1.67;0.30;;;15.60;99.90;;;;;;6180511;23;20639;-90
2022/06/06 13:51:04;;;;;;;1.67;0.57;;;15.60;99.90;;;;;;6155587;23;20209;-89
2022/06/06 13:53:52;;;;;;;1.90;1.07;;;15.70;99.90;;;;;;6179878;23;20206;-90
2022/06/06 13:56:25;;;;;;;0.80;0.70;;;15.40;99.90;;;;;;6181915;23;20194;-90
2022/06/06 13:59:15;;;;;;;2.00;0.63;;;15.50;99.90;;;;;;6182505;23;20158;-90
2022/06/06 14:02:18;;;;;;;0.87;0.70;;;15.30;99.90;;;;;;6182669;23;20230;-92
2022/06/06 14:04:57;;;;;;;0.60;0.60;;;15.10;99.90;;;;;;6184590;23;20663;-90
2022/06/06 14:07:40;;;;;;;11.80;0.90;;;15.10;99.90;;;;;;6181953;23;20194;-90
2022/06/06 14:10:18;;;;;;;0.70;0.60;;;15.30;99.90;;;;;;6180007;23;20202;-93
2022/06/06 14:12:54;;;;;;;0.60;0.60;;;15.00;99.90;;;;;;6181519;23;20234;-91
2022/06/06 14:15:22;;;;;;;0.50;0.50;;;14.90;99.90;;;;;;6182224;23;20403;-93
2022/06/06 14:17:53;;;;;;;0.97;0.77;;;15.00;99.90;;;;;;6158960;23;20237;-93
2022/06/06 14:20:25;;;;;;;0.60;0.60;;;14.90;99.90;;;;;;6189413;23;20273;-92
2022/06/06 14:22:52;;;;;;;0.97;0.97;;;14.90;99.90;;;;;;6214349;23;20146;-93
2022/06/06 14:25:17;;;;;;;0.83;0.83;;;14.90;99.90;;;;;;6158783;23;20281;-93
2022/06/06 14:27:45;;;;;;;0.93;0.90;;;14.80;99.90;;;;;;6157502;23;20300;-95
2022/06/06 14:30:28;;;;;;;0.87;0.67;;;14.80;99.90;;;;;;6170996;23;20540;-93
2022/06/06 14:33:00;;;;;;;2.27;0.80;;;14.80;99.90;;;;;;6193770;23;20209;-93
2022/06/06 14:35:36;;;;;;;1.50;1.03;;;14.80;99.90;;;;;;6211950;23;20248;-91